createdAt,value
2022-10-03T00:00:00.737Z,98229.97
2022-10-03T00:03:09.174Z,98231.78
2022-10-03T00:05:57.347Z,98238.06
2022-10-03T00:08:35.930Z,98242.53
2022-10-03T00:11:19.979Z,98246.03
2022-10-03T00:13:57.403Z,98245.31
2022-10-03T00:16:40.585Z,98240.00
2022-10-03T00:19:38.063Z,98249.81
2022-10-03T00:22:04.608Z,98243.63
2022-10-03T00:24:31.039Z,98246.44
2022-10-03T00:27:16.000Z,98235.81
2022-10-03T00:29:54.625Z,98238.47
2022-10-03T00:32:45.603Z,98245.56
2022-10-03T00:35:23.093Z,98238.63
2022-10-03T00:38:18.318Z,98233.31
2022-10-03T00:41:00.681Z,98236.94
2022-10-03T00:43:35.890Z,98233.41
2022-10-03T00:46:27.107Z,98229.94
2022-10-03T00:49:19.636Z,98226.47
2022-10-03T00:51:55.335Z,98222.94
2022-10-03T00:54:34.186Z,98230.91
2022-10-03T00:57:25.345Z,98228.25
2022-10-03T01:00:10.344Z,98226.47
2022-10-03T01:02:39.704Z,98220.44
2022-10-03T01:05:36.648Z,98221.25
2022-10-03T01:08:24.276Z,98229.38
2022-10-03T01:10:56.736Z,98223.22
2022-10-03T01:14:31.436Z,98210.06
2022-10-03T01:17:15.096Z,98214.56
2022-10-03T01:19:48.012Z,98209.25
2022-10-03T01:22:45.353Z,98215.38
2022-10-03T01:25:17.529Z,98183.44
2022-10-03T01:28:07.719Z,98208.44
2022-10-03T01:30:42.330Z,98211.06
2022-10-03T01:33:28.379Z,98209.25
2022-10-03T01:36:13.310Z,98209.25
2022-10-03T01:39:14.800Z,98211.19
2022-10-03T01:41:52.004Z,98207.56
2022-10-03T01:44:26.483Z,98209.41
2022-10-03T01:46:53.638Z,98213.84
2022-10-03T01:49:29.305Z,98216.38
2022-10-03T01:52:18.553Z,98212.03
2022-10-03T01:55:08.429Z,98203.22
2022-10-03T01:57:47.034Z,98212.16
2022-10-03T02:00:25.921Z,98208.69
2022-10-03T02:03:07.389Z,98209.50
2022-10-03T02:05:38.228Z,98206.03
2022-10-03T02:08:23.456Z,98207.00
2022-10-03T02:11:03.945Z,98212.16
2022-10-03T02:13:57.989Z,98212.28
2022-10-03T02:16:43.429Z,98211.47
2022-10-03T02:19:22.343Z,98216.78
2022-10-03T02:21:55.063Z,98194.75
2022-10-03T02:24:39.602Z,98218.56
2022-10-03T02:27:09.768Z,98218.47
2022-10-03T02:30:04.246Z,98214.94
2022-10-03T02:33:00.380Z,98213.41
2022-10-03T02:35:45.758Z,98215.09
2022-10-03T02:38:26.504Z,98208.94
2022-10-03T02:41:08.162Z,98213.41
2022-10-03T02:44:01.315Z,98209.06
2022-10-03T02:46:46.423Z,98214.38
2022-10-03T02:49:18.675Z,98214.38
2022-10-03T02:52:26.846Z,98207.28
2022-10-03T02:55:30.780Z,98220.63
2022-10-03T02:58:28.449Z,98225.09
2022-10-03T03:01:21.525Z,98222.44
2022-10-03T03:04:11.023Z,98216.41
2022-10-03T03:06:52.865Z,98199.09
2022-10-03T03:09:47.225Z,98212.81
2022-10-03T03:12:49.152Z,98223.41
2022-10-03T03:15:46.072Z,98224.38
2022-10-03T03:18:34.463Z,98199.69
2022-10-03T03:21:24.732Z,98206.78
2022-10-03T03:24:13.218Z,98218.25
2022-10-03T03:26:58.235Z,98218.25
2022-10-03T03:29:43.348Z,98210.28
2022-10-03T03:32:27.136Z,98204.13
2022-10-03T03:34:56.476Z,98215.59
2022-10-03T03:37:34.692Z,98204.97
2022-10-03T03:40:01.328Z,98204.84
2022-10-03T03:42:56.182Z,98209.44
2022-10-03T03:45:58.175Z,98199.09
2022-10-03T03:48:46.541Z,98198.00
2022-10-03T03:51:46.956Z,98199.69
2022-10-03T03:54:38.264Z,98202.34
2022-10-03T03:57:42.033Z,98201.47
2022-10-03T04:00:47.660Z,98200.66
2022-10-03T04:03:23.048Z,98189.22
2022-10-03T04:05:58.811Z,98194.50
2022-10-03T04:09:02.292Z,98203.44
2022-10-03T04:11:51.575Z,98204.13
2022-10-03T04:14:29.809Z,98199.69
2022-10-03T04:17:33.742Z,98205.13
2022-10-03T04:20:22.420Z,98209.44
2022-10-03T04:23:25.856Z,98207.78
2022-10-03T04:26:18.802Z,98192.84
2022-10-03T04:29:20.996Z,98193.81
2022-10-03T04:32:22.140Z,98185.03
2022-10-03T04:35:10.704Z,98177.88
2022-10-03T04:38:14.936Z,98177.06
2022-10-03T04:40:55.872Z,98187.66
2022-10-03T04:43:44.416Z,98173.56
2022-10-03T04:46:31.412Z,98183.34
2022-10-03T04:49:12.091Z,98178.84
2022-10-03T04:51:55.823Z,98185.13
2022-10-03T04:54:40.068Z,98178.84
2022-10-03T04:57:32.733Z,98180.69
2022-10-03T05:00:04.676Z,98191.28
2022-10-03T05:02:43.493Z,98180.78
2022-10-03T05:05:29.305Z,98191.28
2022-10-03T05:07:58.654Z,98186.94
2022-10-03T05:10:47.069Z,98196.59
2022-10-03T05:13:22.912Z,98192.25
2022-10-03T05:16:17.157Z,98192.13
2022-10-03T05:19:19.922Z,98190.44
2022-10-03T05:21:58.080Z,98190.56
2022-10-03T05:24:40.650Z,98190.00
2022-10-03T05:27:35.729Z,98201.19
2022-10-03T05:30:17.148Z,98191.41
2022-10-03T05:32:51.103Z,98195.06
2022-10-03T05:35:36.439Z,98192.41
2022-10-03T05:38:21.057Z,98209.97
2022-10-03T05:40:59.515Z,98197.69
2022-10-03T05:43:58.128Z,98202.16
2022-10-03T05:46:46.201Z,98199.50
2022-10-03T05:49:54.251Z,98190.72
2022-10-03T05:52:59.855Z,98200.47
2022-10-03T05:55:40.882Z,98203.13
2022-10-03T05:58:37.924Z,98209.28
2022-10-03T06:01:42.557Z,98208.41
2022-10-03T06:04:28.097Z,98221.69
2022-10-03T06:07:20.927Z,98221.69
2022-10-03T06:09:54.059Z,98223.50
2022-10-03T06:12:36.036Z,98226.16
2022-10-03T06:15:29.527Z,98223.50
2022-10-03T06:18:11.537Z,98227.84
2022-10-03T06:20:53.099Z,98203.50
2022-10-03T06:23:57.903Z,98233.97
2022-10-03T06:26:45.101Z,98226.88
2022-10-03T06:29:33.664Z,98232.75
2022-10-03T06:32:37.384Z,98237.19
2022-10-03T06:35:41.761Z,98233.72
2022-10-03T06:38:26.824Z,98231.19
2022-10-03T06:40:59.519Z,98235.50
2022-10-03T06:43:41.667Z,98244.34
2022-10-03T06:46:25.239Z,98240.81
2022-10-03T06:49:19.952Z,98237.19
2022-10-03T06:52:08.428Z,98232.88
2022-10-03T06:55:12.680Z,98243.47
2022-10-03T06:58:16.836Z,98231.06
2022-10-03T07:01:01.722Z,98245.28
2022-10-03T07:04:10.852Z,98250.59
2022-10-03T07:07:05.721Z,98246.84
2022-10-03T07:09:53.929Z,98254.41
2022-10-03T07:12:44.760Z,98246.06
2022-10-03T07:15:20.369Z,98249.19
2022-10-03T07:18:08.262Z,98254.06
2022-10-03T07:20:53.413Z,98237.19
2022-10-03T07:24:07.952Z,98246.81
2022-10-03T07:26:40.492Z,98253.97
2022-10-03T07:29:24.059Z,98253.81
2022-10-03T07:31:57.532Z,98253.00
2022-10-03T07:35:01.763Z,98253.09
2022-10-03T07:37:50.042Z,98269.16
2022-10-03T07:40:56.036Z,98257.81
2022-10-03T07:43:42.901Z,98261.19
2022-10-03T07:46:41.907Z,98251.41
2022-10-03T07:49:43.228Z,98268.03
2022-10-03T07:52:48.456Z,98266.69
2022-10-03T07:55:39.732Z,98273.16
2022-10-03T07:58:43.456Z,98272.63
2022-10-03T08:01:19.028Z,98266.06
2022-10-03T08:04:09.922Z,98273.63
2022-10-03T08:06:43.438Z,98269.00
2022-10-03T08:14:19.464Z,98263.69
2022-10-03T08:17:04.190Z,98264.13
2022-10-03T08:19:45.819Z,98256.69
2022-10-03T08:22:37.253Z,98263.22
2022-10-03T08:25:27.142Z,98268.91
2022-10-03T08:28:19.585Z,98266.53
2022-10-03T08:31:05.443Z,98272.00
2022-10-03T08:34:24.441Z,98269.91
2022-10-03T08:37:22.120Z,98269.38
2022-10-03T08:40:13.314Z,98274.84
2022-10-03T08:43:10.163Z,98267.34
2022-10-03T08:45:55.404Z,98272.22
2022-10-03T08:49:06.888Z,98264.81
2022-10-03T08:51:43.032Z,98272.41
2022-10-03T08:54:16.141Z,98264.16
2022-10-03T08:57:11.880Z,98270.03
2022-10-03T08:59:57.367Z,98279.69
2022-10-03T09:03:28.354Z,98276.91
2022-10-03T09:05:59.680Z,98275.91
2022-10-03T09:08:44.254Z,98273.13
2022-10-03T09:11:38.218Z,98276.63
2022-10-03T09:14:05.049Z,98273.00
2022-10-03T09:17:00.184Z,98269.38
2022-10-03T09:19:59.633Z,98264.31
2022-10-03T09:22:55.527Z,98280.00
2022-10-03T09:25:59.279Z,98282.53
2022-10-03T09:31:12.724Z,98278.03
2022-10-03T09:34:04.342Z,98271.91
2022-10-03T09:36:55.920Z,98275.41
2022-10-03T09:39:49.720Z,98262.13
2022-10-03T09:42:34.831Z,98272.63
2022-10-03T09:45:25.709Z,98276.25
2022-10-03T09:48:14.006Z,98274.41
2022-10-03T09:50:58.633Z,98288.56
2022-10-03T09:54:10.372Z,98276.09
2022-10-03T09:57:02.054Z,98286.59
2022-10-03T10:00:03.888Z,98282.13
2022-10-03T10:02:56.479Z,98282.13
2022-10-03T10:05:49.900Z,98268.72
2022-10-03T10:08:31.839Z,98272.34
2022-10-03T10:11:17.372Z,98276.81
2022-10-03T10:14:22.903Z,98280.16
2022-10-03T10:17:08.288Z,98279.34
2022-10-03T10:20:00.781Z,98277.50
2022-10-03T10:23:05.932Z,98280.31
2022-10-03T10:25:59.608Z,98286.31
2022-10-03T10:28:57.377Z,98290.66
2022-10-03T10:31:48.785Z,98291.63
2022-10-03T10:34:49.600Z,98295.25
2022-10-03T10:37:25.261Z,98296.09
2022-10-03T10:40:33.221Z,98295.25
2022-10-03T10:43:20.840Z,98287.44
2022-10-03T10:46:29.461Z,98283.94
2022-10-03T10:49:31.587Z,98291.91
2022-10-03T10:52:16.587Z,98290.25
2022-10-03T10:55:10.704Z,98291.06
2022-10-03T10:57:56.047Z,98285.91
2022-10-03T11:01:04.064Z,98296.53
2022-10-03T11:03:57.025Z,98288.66
2022-10-03T11:06:54.048Z,98292.19
2022-10-03T11:09:45.190Z,98293.00
2022-10-03T11:12:46.606Z,98284.31
2022-10-03T11:15:44.531Z,98311.75
2022-10-03T11:18:42.276Z,98302.06
2022-10-03T11:21:39.913Z,98318.00
2022-10-03T11:24:26.252Z,98322.47
2022-10-03T11:27:20.466Z,98310.03
2022-10-03T11:30:24.685Z,98317.16
2022-10-03T11:33:12.664Z,98316.19
2022-10-03T11:35:57.248Z,98311.84
2022-10-03T11:38:35.036Z,98313.66
2022-10-03T11:41:08.795Z,98314.50
2022-10-03T11:43:38.016Z,98312.69
2022-10-03T11:46:38.391Z,98310.03
2022-10-03T11:49:24.237Z,98310.03
2022-10-03T11:52:29.852Z,98309.09
2022-10-03T11:55:16.219Z,98320.66
2022-10-03T11:57:47.784Z,98316.09
2022-10-03T12:00:23.263Z,98308.94
2022-10-03T12:03:04.491Z,98317.63
2022-10-03T12:05:49.472Z,98305.06
2022-10-03T12:08:55.833Z,98312.16
2022-10-03T12:11:32.258Z,98317.47
2022-10-03T12:14:30.128Z,98324.47
2022-10-03T12:17:18.015Z,98334.13
2022-10-03T12:20:04.235Z,98338.47
2022-10-03T12:22:30.799Z,98335.81
2022-10-03T12:25:32.025Z,98346.28
2022-10-03T12:28:03.851Z,98342.81
2022-10-03T12:30:51.844Z,98343.78
2022-10-03T12:33:45.316Z,98350.78
2022-10-03T12:36:16.720Z,98351.75
2022-10-03T12:39:11.259Z,98346.56
2022-10-03T12:41:56.179Z,98350.22
2022-10-03T12:44:41.545Z,98360.84
2022-10-03T12:47:50.669Z,98356.34
2022-10-03T12:50:22.876Z,98349.09
2022-10-03T12:53:04.412Z,98355.22
2022-10-03T12:55:38.242Z,98357.88
2022-10-03T12:58:24.613Z,98368.38
2022-10-03T13:01:03.884Z,98363.06
2022-10-03T13:03:45.451Z,98371.03
2022-10-03T13:07:09.501Z,98365.59
2022-10-03T13:10:10.428Z,98359.44
2022-10-03T13:12:42.972Z,98359.44
2022-10-03T13:15:18.801Z,98348.81
2022-10-03T13:17:49.716Z,98357.63
2022-10-03T13:20:34.885Z,98361.97
2022-10-03T13:23:20.153Z,98358.47
2022-10-03T13:26:09.810Z,98345.47
2022-10-03T13:29:13.291Z,98352.91
2022-10-03T13:32:06.214Z,98359.88
2022-10-03T13:34:54.656Z,98358.91
2022-10-03T13:37:45.937Z,98301.59
2022-10-03T13:40:15.858Z,98350.09
2022-10-03T13:42:47.093Z,98349.94
2022-10-03T13:45:33.546Z,98337.53
2022-10-03T13:48:04.768Z,98348.97
2022-10-03T13:50:42.347Z,98350.53
2022-10-03T13:53:29.986Z,98337.38
2022-10-03T13:56:05.417Z,98344.38
2022-10-03T13:58:47.409Z,98341.72
2022-10-03T14:01:41.634Z,98352.22
2022-10-03T14:04:17.641Z,98346.03
2022-10-03T14:07:07.476Z,98347.88
2022-10-03T14:10:00.381Z,98357.53
2022-10-03T14:12:55.322Z,98294.34
2022-10-03T14:15:59.103Z,98359.31
2022-10-03T14:18:45.784Z,98359.31
2022-10-03T14:21:40.149Z,98376.81
2022-10-03T14:24:36.671Z,98373.03
2022-10-03T14:27:25.513Z,98374.25
2022-10-03T14:30:10.832Z,98384.44
2022-10-03T14:32:54.049Z,98378.56
2022-10-03T14:35:42.663Z,98385.13
2022-10-03T14:38:50.361Z,98384.38
2022-10-03T14:41:25.938Z,98388.13
2022-10-03T14:43:56.539Z,98389.81
2022-10-03T14:46:27.736Z,98401.06
2022-10-03T14:49:12.988Z,98382.00
2022-10-03T14:51:52.073Z,98394.09
2022-10-03T14:54:25.853Z,98407.13
2022-10-03T14:59:42.272Z,98412.72
2022-10-03T15:02:46.822Z,98418.75
2022-10-03T15:05:32.528Z,98418.75
2022-10-03T15:08:00.609Z,98410.06
2022-10-03T15:10:29.036Z,98416.38
2022-10-03T15:13:05.641Z,98394.09
2022-10-03T15:15:38.474Z,98414.13
2022-10-03T15:18:07.679Z,98378.75
2022-10-03T15:20:37.416Z,98390.66
2022-10-03T15:25:42.456Z,98415.44
2022-10-03T15:28:13.696Z,98411.22
2022-10-03T15:30:41.574Z,98358.50
2022-10-03T15:33:17.073Z,98410.78
2022-10-03T15:35:48.489Z,98405.88
2022-10-03T15:38:18.376Z,98410.06
2022-10-03T15:40:54.441Z,98402.66
2022-10-03T15:43:54.120Z,98407.56
2022-10-03T15:46:28.091Z,98424.19
2022-10-03T15:48:55.521Z,98421.41
2022-10-03T15:51:26.919Z,98424.91
2022-10-03T15:53:58.470Z,98407.69
2022-10-03T15:56:43.620Z,98422.00
2022-10-03T15:59:21.674Z,98423.53
2022-10-03T16:01:52.731Z,98420.75
2022-10-03T16:04:38.481Z,98418.34
2022-10-03T16:07:13.094Z,98426.78
2022-10-03T16:09:54.304Z,98425.91
2022-10-03T16:12:41.564Z,98434.59
2022-10-03T16:15:21.181Z,98418.88
2022-10-03T16:17:56.175Z,98446.44
2022-10-03T16:20:37.867Z,98462.13
2022-10-03T16:23:24.117Z,98450.69
2022-10-03T16:25:55.529Z,98466.16
2022-10-03T16:28:32.099Z,98457.19
2022-10-03T16:31:05.597Z,98456.88
2022-10-03T16:33:35.098Z,98468.03
2022-10-03T16:36:05.345Z,98454.66
2022-10-03T16:38:40.577Z,98468.66
2022-10-03T16:41:10.304Z,98473.25
2022-10-03T16:43:37.379Z,98451.50
2022-10-03T16:46:21.605Z,98451.22
2022-10-03T16:49:14.018Z,98464.94
2022-10-03T16:51:42.778Z,98476.56
2022-10-03T16:56:41.218Z,98455.00
2022-10-03T16:59:14.490Z,98486.53
2022-10-03T17:01:54.219Z,98481.09
2022-10-03T17:04:47.481Z,98482.53
2022-10-03T17:07:23.593Z,98479.63
2022-10-03T17:09:52.464Z,98481.44
2022-10-03T17:12:30.260Z,98478.78
2022-10-03T17:15:03.909Z,98466.25
2022-10-03T17:17:44.900Z,98480.59
2022-10-03T17:20:22.496Z,98492.19
2022-10-03T17:23:03.159Z,98488.91
2022-10-03T17:25:39.733Z,98497.16
2022-10-03T17:28:13.403Z,98491.66
2022-10-03T17:30:52.329Z,98485.31
2022-10-03T17:33:25.028Z,98504.34
2022-10-03T17:36:15.555Z,98496.50
2022-10-03T17:39:00.424Z,98497.59
2022-10-03T17:41:40.318Z,98498.72
2022-10-03T17:44:25.662Z,98497.84
2022-10-03T17:46:52.421Z,98504.16
2022-10-03T17:49:35.855Z,98493.56
2022-10-03T17:52:03.016Z,98489.81
2022-10-03T17:54:33.776Z,98499.91
2022-10-03T17:57:21.200Z,98495.59
2022-10-03T17:59:58.337Z,98493.78
2022-10-03T18:02:34.201Z,98496.56
2022-10-03T18:05:10.492Z,98496.56
2022-10-03T18:07:38.070Z,98504.53
2022-10-03T18:10:16.509Z,98503.69
2022-10-03T18:12:45.040Z,98515.16
2022-10-03T18:15:43.032Z,98500.19
2022-10-03T18:18:40.937Z,98509.94
2022-10-03T18:21:37.831Z,98512.75
2022-10-03T18:24:04.698Z,98517.22
2022-10-03T18:26:35.211Z,98518.56
2022-10-03T18:29:21.282Z,98519.00
2022-10-03T18:32:12.485Z,98522.53
2022-10-03T18:34:44.659Z,98526.97
2022-10-03T18:37:26.431Z,98529.63
2022-10-03T18:39:56.197Z,98519.00
2022-10-03T18:42:28.068Z,98517.38
2022-10-03T18:44:57.733Z,98532.41
2022-10-03T18:47:31.106Z,98534.25
2022-10-03T18:50:17.409Z,98539.66
2022-10-03T18:52:50.190Z,98546.78
2022-10-03T18:55:23.156Z,98556.59
2022-10-03T18:58:03.193Z,98554.75
2022-10-03T19:00:42.474Z,98550.41
2022-10-03T19:03:15.954Z,98558.38
2022-10-03T19:05:48.726Z,98558.38
2022-10-03T19:08:25.003Z,98553.94
2022-10-03T19:10:55.381Z,98545.47
2022-10-03T19:13:40.309Z,98555.84
2022-10-03T19:16:13.087Z,98550.53
2022-10-03T19:18:51.515Z,98554.31
2022-10-03T19:21:21.096Z,98551.66
2022-10-03T19:23:59.615Z,98534.53
2022-10-03T19:26:36.838Z,98546.34
2022-10-03T19:29:08.151Z,98560.44
2022-10-03T19:31:44.174Z,98548.13
2022-10-03T19:34:18.704Z,98549.97
2022-10-03T19:36:49.750Z,98555.25
2022-10-03T19:39:18.291Z,98560.56
2022-10-03T19:42:00.330Z,98557.91
2022-10-03T19:44:28.513Z,98563.22
2022-10-03T19:47:09.081Z,98568.66
2022-10-03T19:50:20.431Z,98556.38
2022-10-03T19:52:48.934Z,98564.31
2022-10-03T19:55:22.194Z,98563.47
2022-10-03T19:57:53.704Z,98560.81
2022-10-03T20:00:23.348Z,98563.47
2022-10-03T20:03:14.941Z,98558.16
2022-10-03T20:06:19.854Z,98570.59
2022-10-03T20:08:54.302Z,98567.94
2022-10-03T20:11:42.433Z,98563.47
2022-10-03T20:14:27.552Z,98572.41
2022-10-03T20:17:04.081Z,98558.19
2022-10-03T20:19:39.594Z,98566.25
2022-10-03T20:22:08.433Z,98572.41
2022-10-03T20:24:42.491Z,98557.31
2022-10-03T20:28:01.605Z,98565.06
2022-10-03T20:30:54.506Z,98562.25
2022-10-03T20:33:24.679Z,98559.47
2022-10-03T20:36:00.713Z,98564.66
2022-10-03T20:38:36.380Z,98571.50
2022-10-03T20:41:11.614Z,98570.53
2022-10-03T20:46:22.110Z,98572.09
2022-10-03T20:49:07.166Z,98568.47
2022-10-03T20:52:05.136Z,98574.50
2022-10-03T20:54:45.976Z,98570.03
2022-10-03T20:57:20.377Z,98575.25
2022-10-03T20:59:51.817Z,98569.78
2022-10-03T21:02:36.473Z,98564.34
2022-10-03T21:05:10.774Z,98547.13
2022-10-03T21:07:46.220Z,98556.16
2022-10-03T21:12:51.176Z,98567.47
2022-10-03T21:15:40.971Z,98571.66
2022-10-03T21:18:18.817Z,98570.72
2022-10-03T21:20:46.964Z,98567.22
2022-10-03T21:23:21.345Z,98568.03
2022-10-03T21:28:42.137Z,98578.44
2022-10-03T21:31:11.455Z,98581.09
2022-10-03T21:33:56.730Z,98581.78
2022-10-03T21:36:34.005Z,98577.31
2022-10-03T21:39:28.611Z,98586.00
2022-10-03T21:41:57.871Z,98585.03
2022-10-03T21:44:33.721Z,98586.72
2022-10-03T21:47:31.215Z,98583.09
2022-10-03T21:50:01.703Z,98580.31
2022-10-03T21:54:56.258Z,98579.34
2022-10-03T21:57:34.900Z,98581.84
2022-10-03T22:00:14.336Z,98576.53
2022-10-03T22:03:02.246Z,98572.91
2022-10-03T22:05:31.603Z,98564.94
2022-10-03T22:07:58.308Z,98563.88
2022-10-03T22:10:35.907Z,98555.91
2022-10-03T22:13:07.894Z,98550.00
2022-10-03T22:15:43.445Z,98562.78
2022-10-03T22:18:20.139Z,98561.81
2022-10-03T22:20:54.969Z,98566.16
2022-10-03T22:23:47.700Z,98564.34
2022-10-03T22:26:33.825Z,98573.16
2022-10-03T22:29:06.905Z,98567.00
2022-10-03T22:32:00.788Z,98563.38
2022-10-03T22:34:55.383Z,98571.22
2022-10-03T22:37:22.567Z,98575.69
2022-10-03T22:39:49.609Z,98559.88
2022-10-03T22:42:17.713Z,98564.09
2022-10-03T22:44:50.373Z,98562.25
2022-10-03T22:47:30.938Z,98555.66
2022-10-03T22:50:02.460Z,98562.97
2022-10-03T22:52:35.699Z,98548.81
2022-10-03T22:55:07.201Z,98569.97
2022-10-03T22:57:35.962Z,98565.50
2022-10-03T23:00:15.587Z,98565.50
2022-10-03T23:02:55.056Z,98562.16
2022-10-03T23:05:59.209Z,98557.66
2022-10-03T23:08:44.388Z,98555.16
2022-10-03T23:11:22.927Z,98559.75
2022-10-03T23:13:50.614Z,98555.41
2022-10-03T23:16:32.461Z,98558.06
2022-10-03T23:21:30.182Z,98557.47
2022-10-03T23:24:15.512Z,98553.84
2022-10-03T23:27:31.324Z,98558.31
2022-10-03T23:30:14.484Z,98558.31
2022-10-03T23:32:46.932Z,98554.72
2022-10-03T23:35:31.848Z,98555.66
2022-10-03T23:38:00.133Z,98559.16
2022-10-03T23:40:47.930Z,98558.31
2022-10-03T23:43:29.575Z,98546.84
2022-10-03T23:46:02.355Z,98546.00
2022-10-03T23:48:32.592Z,98543.22
2022-10-03T23:51:06.549Z,98549.78
2022-10-03T23:53:41.797Z,98546.00
2022-10-03T23:56:27.312Z,98531.41
2022-10-03T23:59:03.004Z,98546.00
